sensor_id;sensor_type;location;lat;lon;timestamp;temperature;humidity
77052;SHT30;65980;44.898;8.602;2023-02-02T00:01:38;5.38;78.09
77052;SHT30;65980;44.898;8.602;2023-02-02T00:05:20;5.32;77.65
77052;SHT30;65980;44.898;8.602;2023-02-02T00:12:48;4.09;82.49
77052;SHT30;65980;44.898;8.602;2023-02-02T00:20:11;4.17;85.82
77052;SHT30;65980;44.898;8.602;2023-02-02T00:23:22;4.27;81.81
77052;SHT30;65980;44.898;8.602;2023-02-02T00:26:32;4.40;80.64
77052;SHT30;65980;44.898;8.602;2023-02-02T00:29:46;4.33;81.75
77052;SHT30;65980;44.898;8.602;2023-02-02T00:32:50;4.30;82.80
77052;SHT30;65980;44.898;8.602;2023-02-02T00:36:03;4.27;85.96
77052;SHT30;65980;44.898;8.602;2023-02-02T00:39:24;4.34;81.28
77052;SHT30;65980;44.898;8.602;2023-02-02T00:47:20;3.95;84.41
77052;SHT30;65980;44.898;8.602;2023-02-02T00:50:44;3.57;84.05
77052;SHT30;65980;44.898;8.602;2023-02-02T00:54:07;3.19;85.23
77052;SHT30;65980;44.898;8.602;2023-02-02T00:57:14;2.96;86.25
77052;SHT30;65980;44.898;8.602;2023-02-02T01:00:37;2.99;86.59
77052;SHT30;65980;44.898;8.602;2023-02-02T01:03:43;2.74;86.21
77052;SHT30;65980;44.898;8.602;2023-02-02T01:07:19;2.97;87.12
77052;SHT30;65980;44.898;8.602;2023-02-02T01:10:58;3.03;86.56
77052;SHT30;65980;44.898;8.602;2023-02-02T01:14:13;3.09;87.37
77052;SHT30;65980;44.898;8.602;2023-02-02T01:17:26;3.31;86.95
77052;SHT30;65980;44.898;8.602;2023-02-02T01:21:45;3.09;86.43
77052;SHT30;65980;44.898;8.602;2023-02-02T01:24:58;3.03;87.01
77052;SHT30;65980;44.898;8.602;2023-02-02T01:28:16;2.99;87.17
77052;SHT30;65980;44.898;8.602;2023-02-02T01:31:24;2.91;87.51
77052;SHT30;65980;44.898;8.602;2023-02-02T01:34:35;2.97;86.93
77052;SHT30;65980;44.898;8.602;2023-02-02T01:38:08;2.93;86.63
77052;SHT30;65980;44.898;8.602;2023-02-02T01:46:01;2.85;86.44
77052;SHT30;65980;44.898;8.602;2023-02-02T01:49:24;2.79;85.92
77052;SHT30;65980;44.898;8.602;2023-02-02T01:53:08;2.85;86.32
77052;SHT30;65980;44.898;8.602;2023-02-02T01:56:35;2.79;85.75
77052;SHT30;65980;44.898;8.602;2023-02-02T02:00:18;3.03;86.35
77052;SHT30;65980;44.898;8.602;2023-02-02T02:06:52;3.06;86.06
77052;SHT30;65980;44.898;8.602;2023-02-02T02:10:16;3.12;85.36
77052;SHT30;65980;44.898;8.602;2023-02-02T02:13:27;3.24;85.04
77052;SHT30;65980;44.898;8.602;2023-02-02T02:17:49;3.13;85.10
77052;SHT30;65980;44.898;8.602;2023-02-02T02:34:40;2.99;85.59
77052;SHT30;65980;44.898;8.602;2023-02-02T02:41:41;2.81;85.56
77052;SHT30;65980;44.898;8.602;2023-02-02T02:44:54;2.85;86.09
77052;SHT30;65980;44.898;8.602;2023-02-02T02:48:35;2.86;85.50
77052;SHT30;65980;44.898;8.602;2023-02-02T02:51:50;2.86;85.58
77052;SHT30;65980;44.898;8.602;2023-02-02T02:55:56;2.84;85.33
77052;SHT30;65980;44.898;8.602;2023-02-02T03:06:30;2.65;86.04
77052;SHT30;65980;44.898;8.602;2023-02-02T03:10:12;2.59;86.23
77052;SHT30;65980;44.898;8.602;2023-02-02T03:13:32;2.59;86.12
77052;SHT30;65980;44.898;8.602;2023-02-02T03:17:11;2.62;86.40
77052;SHT30;65980;44.898;8.602;2023-02-02T03:20:17;2.74;86.22
77052;SHT30;65980;44.898;8.602;2023-02-02T03:24:09;2.95;86.75
77052;SHT30;65980;44.898;8.602;2023-02-02T03:27:33;3.07;84.61
77052;SHT30;65980;44.898;8.602;2023-02-02T03:30:47;2.99;83.00
77052;SHT30;65980;44.898;8.602;2023-02-02T03:33:59;3.07;84.47
77052;SHT30;65980;44.898;8.602;2023-02-02T03:37:08;2.96;85.17
77052;SHT30;65980;44.898;8.602;2023-02-02T03:40:23;3.10;84.04
77052;SHT30;65980;44.898;8.602;2023-02-02T03:43:37;2.79;82.96
77052;SHT30;65980;44.898;8.602;2023-02-02T03:46:40;2.84;83.16
77052;SHT30;65980;44.898;8.602;2023-02-02T03:49:47;2.82;85.72
77052;SHT30;65980;44.898;8.602;2023-02-02T03:52:54;2.86;84.36
77052;SHT30;65980;44.898;8.602;2023-02-02T03:56:03;3.03;82.33
77052;SHT30;65980;44.898;8.602;2023-02-02T03:59:17;2.68;85.92
77052;SHT30;65980;44.898;8.602;2023-02-02T04:02:50;2.69;86.77
77052;SHT30;65980;44.898;8.602;2023-02-02T04:06:12;2.68;86.64
77052;SHT30;65980;44.898;8.602;2023-02-02T04:09:42;2.76;87.13
77052;SHT30;65980;44.898;8.602;2023-02-02T04:12:52;2.71;84.86
77052;SHT30;65980;44.898;8.602;2023-02-02T04:16:06;2.86;84.00
77052;SHT30;65980;44.898;8.602;2023-02-02T04:19:14;2.65;85.14
77052;SHT30;65980;44.898;8.602;2023-02-02T04:22:29;2.59;85.49
77052;SHT30;65980;44.898;8.602;2023-02-02T04:25:38;2.17;88.03
77052;SHT30;65980;44.898;8.602;2023-02-02T04:28:51;2.50;88.68
77052;SHT30;65980;44.898;8.602;2023-02-02T04:31:55;2.72;88.42
77052;SHT30;65980;44.898;8.602;2023-02-02T04:35:44;2.95;87.27
77052;SHT30;65980;44.898;8.602;2023-02-02T04:38:56;3.07;85.45
77052;SHT30;65980;44.898;8.602;2023-02-02T04:42:29;2.61;85.21
77052;SHT30;65980;44.898;8.602;2023-02-02T04:46:00;2.06;87.50
77052;SHT30;65980;44.898;8.602;2023-02-02T04:49:45;1.93;88.75
77052;SHT30;65980;44.898;8.602;2023-02-02T04:52:53;2.09;89.13
77052;SHT30;65980;44.898;8.602;2023-02-02T04:59:55;1.69;87.68
77052;SHT30;65980;44.898;8.602;2023-02-02T05:03:31;1.65;88.48
77052;SHT30;65980;44.898;8.602;2023-02-02T05:07:05;1.91;87.12
77052;SHT30;65980;44.898;8.602;2023-02-02T05:10:12;2.14;86.74
77052;SHT30;65980;44.898;8.602;2023-02-02T05:13:27;2.14;86.05
77052;SHT30;65980;44.898;8.602;2023-02-02T05:17:04;2.27;85.13
77052;SHT30;65980;44.898;8.602;2023-02-02T05:20:23;2.27;84.85
77052;SHT30;65980;44.898;8.602;2023-02-02T05:23:29;2.45;85.22
77052;SHT30;65980;44.898;8.602;2023-02-02T05:26:33;2.42;85.09
77052;SHT30;65980;44.898;8.602;2023-02-02T05:29:38;2.50;84.91
77052;SHT30;65980;44.898;8.602;2023-02-02T05:33:11;2.36;84.58
77052;SHT30;65980;44.898;8.602;2023-02-02T05:36:25;2.54;85.75
77052;SHT30;65980;44.898;8.602;2023-02-02T05:43:39;2.31;85.86
77052;SHT30;65980;44.898;8.602;2023-02-02T05:47:24;2.31;87.42
77052;SHT30;65980;44.898;8.602;2023-02-02T05:51:17;2.30;84.87
77052;SHT30;65980;44.898;8.602;2023-02-02T05:55:37;2.65;82.74
77052;SHT30;65980;44.898;8.602;2023-02-02T05:59:09;2.57;85.05
77052;SHT30;65980;44.898;8.602;2023-02-02T06:02:39;2.52;83.45
77052;SHT30;65980;44.898;8.602;2023-02-02T06:05:53;2.31;85.16
77052;SHT30;65980;44.898;8.602;2023-02-02T06:09:27;2.44;86.21
77052;SHT30;65980;44.898;8.602;2023-02-02T06:12:50;2.34;84.92
77052;SHT30;65980;44.898;8.602;2023-02-02T06:15:56;2.07;85.61
77052;SHT30;65980;44.898;8.602;2023-02-02T06:19:13;1.78;86.59
77052;SHT30;65980;44.898;8.602;2023-02-02T06:26:08;1.59;87.55
77052;SHT30;65980;44.898;8.602;2023-02-02T06:29:28;1.52;87.39
77052;SHT30;65980;44.898;8.602;2023-02-02T06:32:40;1.44;88.30
77052;SHT30;65980;44.898;8.602;2023-02-02T06:35:46;1.54;88.16
77052;SHT30;65980;44.898;8.602;2023-02-02T06:38:57;1.43;87.85
77052;SHT30;65980;44.898;8.602;2023-02-02T06:42:20;1.54;86.89
77052;SHT30;65980;44.898;8.602;2023-02-02T06:50:20;1.47;87.34
77052;SHT30;65980;44.898;8.602;2023-02-02T06:53:26;1.44;86.37
77052;SHT30;65980;44.898;8.602;2023-02-02T06:56:30;1.37;86.59
77052;SHT30;65980;44.898;8.602;2023-02-02T06:59:35;1.34;86.43
77052;SHT30;65980;44.898;8.602;2023-02-02T07:02:44;1.57;86.32
77052;SHT30;65980;44.898;8.602;2023-02-02T07:05:49;1.75;85.73
77052;SHT30;65980;44.898;8.602;2023-02-02T07:08:54;1.96;84.61
77052;SHT30;65980;44.898;8.602;2023-02-02T07:11:59;2.09;83.13
77052;SHT30;65980;44.898;8.602;2023-02-02T07:15:06;1.82;84.09
77052;SHT30;65980;44.898;8.602;2023-02-02T07:18:11;1.57;84.45
77052;SHT30;65980;44.898;8.602;2023-02-02T07:21:21;1.69;84.12
77052;SHT30;65980;44.898;8.602;2023-02-02T07:24:31;1.65;83.96
77052;SHT30;65980;44.898;8.602;2023-02-02T07:27:45;1.87;83.44
77052;SHT30;65980;44.898;8.602;2023-02-02T07:30:50;2.19;82.83
77052;SHT30;65980;44.898;8.602;2023-02-02T07:33:54;2.38;81.56
77052;SHT30;65980;44.898;8.602;2023-02-02T07:37:19;2.19;82.46
77052;SHT30;65980;44.898;8.602;2023-02-02T07:40:42;2.51;83.23
77052;SHT30;65980;44.898;8.602;2023-02-02T07:43:47;2.81;80.53
77052;SHT30;65980;44.898;8.602;2023-02-02T07:46:52;2.86;79.85
77052;SHT30;65980;44.898;8.602;2023-02-02T07:49:56;2.95;79.41
77052;SHT30;65980;44.898;8.602;2023-02-02T07:53:00;2.89;80.14
77052;SHT30;65980;44.898;8.602;2023-02-02T07:56:10;3.13;79.36
77052;SHT30;65980;44.898;8.602;2023-02-02T07:59:16;3.48;78.20
77052;SHT30;65980;44.898;8.602;2023-02-02T08:02:21;3.92;76.41
77052;SHT30;65980;44.898;8.602;2023-02-02T08:05:25;4.00;76.40
77052;SHT30;65980;44.898;8.602;2023-02-02T08:08:30;4.36;74.82
77052;SHT30;65980;44.898;8.602;2023-02-02T08:11:36;4.58;74.23
77052;SHT30;65980;44.898;8.602;2023-02-02T08:14:40;4.18;75.35
77052;SHT30;65980;44.898;8.602;2023-02-02T08:17:45;3.92;76.84
77052;SHT30;65980;44.898;8.602;2023-02-02T08:20:52;4.16;76.65
77052;SHT30;65980;44.898;8.602;2023-02-02T08:23:57;4.27;76.11
77052;SHT30;65980;44.898;8.602;2023-02-02T08:27:03;4.99;74.03
77052;SHT30;65980;44.898;8.602;2023-02-02T08:30:07;4.83;74.75
77052;SHT30;65980;44.898;8.602;2023-02-02T08:33:12;5.47;73.24
77052;SHT30;65980;44.898;8.602;2023-02-02T08:36:18;6.10;70.90
77052;SHT30;65980;44.898;8.602;2023-02-02T08:39:22;6.24;70.32
77052;SHT30;65980;44.898;8.602;2023-02-02T08:42:27;5.70;72.02
77052;SHT30;65980;44.898;8.602;2023-02-02T08:45:31;5.42;73.01
77052;SHT30;65980;44.898;8.602;2023-02-02T08:48:46;5.30;73.01
77052;SHT30;65980;44.898;8.602;2023-02-02T08:51:50;5.35;72.79
77052;SHT30;65980;44.898;8.602;2023-02-02T08:54:54;6.06;71.26
77052;SHT30;65980;44.898;8.602;2023-02-02T08:57:58;6.99;69.06
77052;SHT30;65980;44.898;8.602;2023-02-02T09:01:07;7.41;68.10
77052;SHT30;65980;44.898;8.602;2023-02-02T09:04:14;8.28;65.74
77052;SHT30;65980;44.898;8.602;2023-02-02T09:07:22;9.35;62.37
77052;SHT30;65980;44.898;8.602;2023-02-02T09:10:28;8.81;63.75
77052;SHT30;65980;44.898;8.602;2023-02-02T09:13:38;8.81;64.62
77052;SHT30;65980;44.898;8.602;2023-02-02T09:16:43;8.03;67.08
77052;SHT30;65980;44.898;8.602;2023-02-02T09:19:47;8.13;67.47
77052;SHT30;65980;44.898;8.602;2023-02-02T09:22:54;9.56;63.35
77052;SHT30;65980;44.898;8.602;2023-02-02T09:26:17;9.76;62.14
77052;SHT30;65980;44.898;8.602;2023-02-02T09:29:22;9.38;63.27
77052;SHT30;65980;44.898;8.602;2023-02-02T09:32:26;9.90;62.56
77052;SHT30;65980;44.898;8.602;2023-02-02T09:35:31;11.48;57.85
77052;SHT30;65980;44.898;8.602;2023-02-02T09:38:40;12.60;54.85
77052;SHT30;65980;44.898;8.602;2023-02-02T09:45:30;12.67;54.21
77052;SHT30;65980;44.898;8.602;2023-02-02T09:49:43;12.11;56.48
77052;SHT30;65980;44.898;8.602;2023-02-02T09:55:41;11.20;59.51
77052;SHT30;65980;44.898;8.602;2023-02-02T09:58:58;11.08;61.27
77052;SHT30;65980;44.898;8.602;2023-02-02T10:05:28;13.15;55.90
77052;SHT30;65980;44.898;8.602;2023-02-02T10:08:40;15.58;48.34
77052;SHT30;65980;44.898;8.602;2023-02-02T10:15:39;17.93;43.55
77052;SHT30;65980;44.898;8.602;2023-02-02T10:19:02;18.72;40.57
77052;SHT30;65980;44.898;8.602;2023-02-02T10:22:14;20.65;38.57
77052;SHT30;65980;44.898;8.602;2023-02-02T10:25:21;21.11;37.25
77052;SHT30;65980;44.898;8.602;2023-02-02T10:35:37;16.04;48.96
77052;SHT30;65980;44.898;8.602;2023-02-02T10:39:06;14.76;50.16
77052;SHT30;65980;44.898;8.602;2023-02-02T10:46:35;14.99;50.34
77052;SHT30;65980;44.898;8.602;2023-02-02T10:49:44;15.08;49.70
77052;SHT30;65980;44.898;8.602;2023-02-02T10:52:55;14.18;51.76
77052;SHT30;65980;44.898;8.602;2023-02-02T10:56:07;16.10;48.40
77052;SHT30;65980;44.898;8.602;2023-02-02T10:59:20;17.69;43.35
77052;SHT30;65980;44.898;8.602;2023-02-02T11:02:31;18.73;41.65
77052;SHT30;65980;44.898;8.602;2023-02-02T11:05:36;18.82;40.36
77052;SHT30;65980;44.898;8.602;2023-02-02T11:08:59;17.28;44.76
77052;SHT30;65980;44.898;8.602;2023-02-02T11:15:32;16.61;47.25
77052;SHT30;65980;44.898;8.602;2023-02-02T11:18:40;16.77;46.10
77052;SHT30;65980;44.898;8.602;2023-02-02T11:21:51;15.01;51.22
77052;SHT30;65980;44.898;8.602;2023-02-02T11:25:00;14.65;51.86
77052;SHT30;65980;44.898;8.602;2023-02-02T11:28:33;14.82;51.61
77052;SHT30;65980;44.898;8.602;2023-02-02T11:31:43;14.55;51.25
77052;SHT30;65980;44.898;8.602;2023-02-02T11:34:48;15.31;50.00
77052;SHT30;65980;44.898;8.602;2023-02-02T11:38:13;15.52;50.26
77052;SHT30;65980;44.898;8.602;2023-02-02T11:41:19;14.96;51.58
77052;SHT30;65980;44.898;8.602;2023-02-02T11:44:26;16.94;48.34
77052;SHT30;65980;44.898;8.602;2023-02-02T11:47:32;16.25;47.75
77052;SHT30;65980;44.898;8.602;2023-02-02T11:50:37;15.10;50.68
77052;SHT30;65980;44.898;8.602;2023-02-02T11:53:46;16.59;47.12
77052;SHT30;65980;44.898;8.602;2023-02-02T11:56:58;17.63;45.01
77052;SHT30;65980;44.898;8.602;2023-02-02T12:09:35;16.87;44.81
77052;SHT30;65980;44.898;8.602;2023-02-02T12:13:08;18.58;42.02
77052;SHT30;65980;44.898;8.602;2023-02-02T12:16:52;19.32;39.74
77052;SHT30;65980;44.898;8.602;2023-02-02T12:23:52;18.70;42.75
77052;SHT30;65980;44.898;8.602;2023-02-02T12:30:36;20.96;37.13
77052;SHT30;65980;44.898;8.602;2023-02-02T12:35:00;20.28;38.81
77052;SHT30;65980;44.898;8.602;2023-02-02T12:57:44;17.58;43.01
77052;SHT30;65980;44.898;8.602;2023-02-02T13:01:39;17.17;43.25
77052;SHT30;65980;44.898;8.602;2023-02-02T13:09:08;16.13;46.48
77052;SHT30;65980;44.898;8.602;2023-02-02T13:13:14;17.28;45.39
77052;SHT30;65980;44.898;8.602;2023-02-02T13:16:28;18.51;42.92
77052;SHT30;65980;44.898;8.602;2023-02-02T13:23:44;20.79;37.18
77052;SHT30;65980;44.898;8.602;2023-02-02T13:26:53;20.76;37.54
77052;SHT30;65980;44.898;8.602;2023-02-02T13:33:41;20.07;36.53
77052;SHT30;65980;44.898;8.602;2023-02-02T13:36:52;19.87;36.95
77052;SHT30;65980;44.898;8.602;2023-02-02T13:40:24;18.20;39.03
77052;SHT30;65980;44.898;8.602;2023-02-02T13:47:02;17.34;41.24
77052;SHT30;65980;44.898;8.602;2023-02-02T13:50:14;17.45;39.10
77052;SHT30;65980;44.898;8.602;2023-02-02T13:54:10;17.38;40.95
77052;SHT30;65980;44.898;8.602;2023-02-02T13:58:45;17.63;37.44
77052;SHT30;65980;44.898;8.602;2023-02-02T14:01:19;17.27;39.97
77052;SHT30;65980;44.898;8.602;2023-02-02T14:04:27;17.32;39.73
77052;SHT30;65980;44.898;8.602;2023-02-02T14:07:40;16.90;42.64
77052;SHT30;65980;44.898;8.602;2023-02-02T14:14:19;17.39;41.46
77052;SHT30;65980;44.898;8.602;2023-02-02T14:20:50;16.73;43.41
77052;SHT30;65980;44.898;8.602;2023-02-02T14:23:54;15.76;42.48
77052;SHT30;65980;44.898;8.602;2023-02-02T14:30:22;15.86;44.19
77052;SHT30;65980;44.898;8.602;2023-02-02T14:33:39;16.06;43.83
77052;SHT30;65980;44.898;8.602;2023-02-02T14:43:46;14.89;48.04
77052;SHT30;65980;44.898;8.602;2023-02-02T14:46:53;14.76;48.04
77052;SHT30;65980;44.898;8.602;2023-02-02T14:49:57;14.84;45.22
77052;SHT30;65980;44.898;8.602;2023-02-02T14:56:16;15.24;43.08
77052;SHT30;65980;44.898;8.602;2023-02-02T14:59:35;15.30;40.07
77052;SHT30;65980;44.898;8.602;2023-02-02T15:02:41;15.20;39.81
77052;SHT30;65980;44.898;8.602;2023-02-02T15:05:46;15.38;40.34
77052;SHT30;65980;44.898;8.602;2023-02-02T15:12:43;15.55;40.92
77052;SHT30;65980;44.898;8.602;2023-02-02T15:15:50;15.54;40.98
77052;SHT30;65980;44.898;8.602;2023-02-02T15:19:05;15.74;40.35
77052;SHT30;65980;44.898;8.602;2023-02-02T15:26:24;15.51;40.20
77052;SHT30;65980;44.898;8.602;2023-02-02T15:29:44;14.89;40.33
77052;SHT30;65980;44.898;8.602;2023-02-02T15:33:04;15.16;39.70
77052;SHT30;65980;44.898;8.602;2023-02-02T15:36:33;15.10;41.37
77052;SHT30;65980;44.898;8.602;2023-02-02T15:39:42;15.06;41.22
77052;SHT30;65980;44.898;8.602;2023-02-02T15:43:10;15.00;41.64
77052;SHT30;65980;44.898;8.602;2023-02-02T15:46:22;14.55;43.65
77052;SHT30;65980;44.898;8.602;2023-02-02T15:49:31;14.41;44.04
77052;SHT30;65980;44.898;8.602;2023-02-02T15:52:44;14.62;44.43
77052;SHT30;65980;44.898;8.602;2023-02-02T15:55:51;14.63;44.71
77052;SHT30;65980;44.898;8.602;2023-02-02T15:59:13;14.52;44.73
77052;SHT30;65980;44.898;8.602;2023-02-02T16:03:11;14.42;46.01
77052;SHT30;65980;44.898;8.602;2023-02-02T16:06:30;14.41;45.92
77052;SHT30;65980;44.898;8.602;2023-02-02T16:09:38;14.21;47.44
77052;SHT30;65980;44.898;8.602;2023-02-02T16:12:45;13.82;48.42
77052;SHT30;65980;44.898;8.602;2023-02-02T16:15:59;13.77;48.29
77052;SHT30;65980;44.898;8.602;2023-02-02T16:22:21;13.52;49.55
77052;SHT30;65980;44.898;8.602;2023-02-02T16:25:44;13.20;51.35
77052;SHT30;65980;44.898;8.602;2023-02-02T16:28:52;12.96;51.17
77052;SHT30;65980;44.898;8.602;2023-02-02T16:31:56;12.73;51.29
77052;SHT30;65980;44.898;8.602;2023-02-02T16:35:05;12.69;52.54
77052;SHT30;65980;44.898;8.602;2023-02-02T16:38:34;12.31;52.41
77052;SHT30;65980;44.898;8.602;2023-02-02T16:41:38;12.32;54.11
77052;SHT30;65980;44.898;8.602;2023-02-02T16:44:42;12.48;52.87
77052;SHT30;65980;44.898;8.602;2023-02-02T16:47:46;12.39;53.73
77052;SHT30;65980;44.898;8.602;2023-02-02T16:51:06;11.28;57.04
77052;SHT30;65980;44.898;8.602;2023-02-02T16:54:19;10.75;58.86
77052;SHT30;65980;44.898;8.602;2023-02-02T16:57:28;10.72;59.82
77052;SHT30;65980;44.898;8.602;2023-02-02T17:00:33;11.07;58.79
77052;SHT30;65980;44.898;8.602;2023-02-02T17:03:51;11.15;58.98
77052;SHT30;65980;44.898;8.602;2023-02-02T17:07:05;11.17;58.59
77052;SHT30;65980;44.898;8.602;2023-02-02T17:10:23;11.24;57.08
77052;SHT30;65980;44.898;8.602;2023-02-02T17:16:35;11.35;56.81
77052;SHT30;65980;44.898;8.602;2023-02-02T17:19:40;11.54;56.28
77052;SHT30;65980;44.898;8.602;2023-02-02T17:22:52;11.54;57.71
77052;SHT30;65980;44.898;8.602;2023-02-02T17:26:06;11.24;58.45
77052;SHT30;65980;44.898;8.602;2023-02-02T17:29:21;11.15;58.98
77052;SHT30;65980;44.898;8.602;2023-02-02T17:32:27;11.00;59.24
77052;SHT30;65980;44.898;8.602;2023-02-02T17:35:32;10.77;59.87
77052;SHT30;65980;44.898;8.602;2023-02-02T17:38:37;10.87;60.34
77052;SHT30;65980;44.898;8.602;2023-02-02T17:41:44;10.42;60.69
77052;SHT30;65980;44.898;8.602;2023-02-02T17:44:50;10.44;61.98
77052;SHT30;65980;44.898;8.602;2023-02-02T17:47:55;10.52;60.45
77052;SHT30;65980;44.898;8.602;2023-02-02T17:51:00;10.46;61.15
77052;SHT30;65980;44.898;8.602;2023-02-02T17:54:11;10.55;60.51
77052;SHT30;65980;44.898;8.602;2023-02-02T17:57:16;10.53;60.29
77052;SHT30;65980;44.898;8.602;2023-02-02T18:00:22;10.15;61.64
77052;SHT30;65980;44.898;8.602;2023-02-02T18:03:32;10.10;61.80
77052;SHT30;65980;44.898;8.602;2023-02-02T18:06:37;10.10;62.13
77052;SHT30;65980;44.898;8.602;2023-02-02T18:09:42;10.00;62.24
77052;SHT30;65980;44.898;8.602;2023-02-02T18:12:46;10.22;62.37
77052;SHT30;65980;44.898;8.602;2023-02-02T18:15:52;10.12;62.41
77052;SHT30;65980;44.898;8.602;2023-02-02T18:19:02;9.97;62.13
77052;SHT30;65980;44.898;8.602;2023-02-02T18:22:13;9.93;62.87
77052;SHT30;65980;44.898;8.602;2023-02-02T18:25:23;9.86;63.37
77052;SHT30;65980;44.898;8.602;2023-02-02T18:28:28;9.69;63.84
77052;SHT30;65980;44.898;8.602;2023-02-02T18:31:36;9.82;63.65
77052;SHT30;65980;44.898;8.602;2023-02-02T18:34:44;9.63;63.48
77052;SHT30;65980;44.898;8.602;2023-02-02T18:37:56;9.69;63.51
77052;SHT30;65980;44.898;8.602;2023-02-02T18:41:05;9.69;62.48
77052;SHT30;65980;44.898;8.602;2023-02-02T18:44:13;9.82;61.57
77052;SHT30;65980;44.898;8.602;2023-02-02T18:47:18;9.90;61.28
77052;SHT30;65980;44.898;8.602;2023-02-02T18:50:26;8.73;65.12
77052;SHT30;65980;44.898;8.602;2023-02-02T18:53:38;7.82;68.55
77052;SHT30;65980;44.898;8.602;2023-02-02T18:56:49;7.94;68.23
77052;SHT30;65980;44.898;8.602;2023-02-02T19:00:18;7.73;68.95
77052;SHT30;65980;44.898;8.602;2023-02-02T19:03:35;8.18;67.29
77052;SHT30;65980;44.898;8.602;2023-02-02T19:06:54;8.24;67.31
77052;SHT30;65980;44.898;8.602;2023-02-02T19:10:18;8.77;66.06
77052;SHT30;65980;44.898;8.602;2023-02-02T19:13:27;8.49;67.00
77052;SHT30;65980;44.898;8.602;2023-02-02T19:16:32;8.53;67.67
77052;SHT30;65980;44.898;8.602;2023-02-02T19:19:38;8.62;67.56
77052;SHT30;65980;44.898;8.602;2023-02-02T19:22:42;8.63;68.19
77052;SHT30;65980;44.898;8.602;2023-02-02T19:25:49;8.53;68.54
77052;SHT30;65980;44.898;8.602;2023-02-02T19:29:04;8.22;68.24
77052;SHT30;65980;44.898;8.602;2023-02-02T19:32:21;7.72;70.90
77052;SHT30;65980;44.898;8.602;2023-02-02T19:35:27;7.30;72.68
77052;SHT30;65980;44.898;8.602;2023-02-02T19:38:33;7.63;71.61
77052;SHT30;65980;44.898;8.602;2023-02-02T19:41:37;7.70;71.66
77052;SHT30;65980;44.898;8.602;2023-02-02T19:44:43;8.01;70.27
77052;SHT30;65980;44.898;8.602;2023-02-02T19:47:48;7.72;71.10
77052;SHT30;65980;44.898;8.602;2023-02-02T19:50:54;7.72;71.26
77052;SHT30;65980;44.898;8.602;2023-02-02T19:54:00;7.91;71.11
77052;SHT30;65980;44.898;8.602;2023-02-02T19:57:20;7.68;70.89
77052;SHT30;65980;44.898;8.602;2023-02-02T20:00:28;7.56;71.89
77052;SHT30;65980;44.898;8.602;2023-02-02T20:03:39;7.56;71.51
77052;SHT30;65980;44.898;8.602;2023-02-02T20:06:46;7.83;70.49
77052;SHT30;65980;44.898;8.602;2023-02-02T20:09:51;7.82;70.42
77052;SHT30;65980;44.898;8.602;2023-02-02T20:12:56;7.58;70.91
77052;SHT30;65980;44.898;8.602;2023-02-02T20:16:03;7.21;71.75
77052;SHT30;65980;44.898;8.602;2023-02-02T20:19:22;7.24;71.30
77052;SHT30;65980;44.898;8.602;2023-02-02T20:22:28;6.94;71.59
77052;SHT30;65980;44.898;8.602;2023-02-02T20:25:34;6.92;72.17
77052;SHT30;65980;44.898;8.602;2023-02-02T20:28:42;6.79;72.88
77052;SHT30;65980;44.898;8.602;2023-02-02T20:31:49;6.85;72.36
77052;SHT30;65980;44.898;8.602;2023-02-02T20:34:55;6.99;71.69
77052;SHT30;65980;44.898;8.602;2023-02-02T20:38:01;6.82;72.02
77052;SHT30;65980;44.898;8.602;2023-02-02T20:41:05;6.90;71.80
77052;SHT30;65980;44.898;8.602;2023-02-02T20:44:10;6.73;72.55
77052;SHT30;65980;44.898;8.602;2023-02-02T20:47:18;6.38;72.38
77052;SHT30;65980;44.898;8.602;2023-02-02T20:50:22;6.71;72.08
77052;SHT30;65980;44.898;8.602;2023-02-02T20:53:26;6.89;71.32
77052;SHT30;65980;44.898;8.602;2023-02-02T20:56:30;6.41;71.61
77052;SHT30;65980;44.898;8.602;2023-02-02T20:59:35;6.41;72.38
77052;SHT30;65980;44.898;8.602;2023-02-02T21:02:39;6.37;72.87
77052;SHT30;65980;44.898;8.602;2023-02-02T21:05:43;6.35;72.24
77052;SHT30;65980;44.898;8.602;2023-02-02T21:08:47;6.48;71.79
77052;SHT30;65980;44.898;8.602;2023-02-02T21:11:55;6.09;72.71
77052;SHT30;65980;44.898;8.602;2023-02-02T21:14:59;5.65;75.97
77052;SHT30;65980;44.898;8.602;2023-02-02T21:18:04;5.79;74.56
77052;SHT30;65980;44.898;8.602;2023-02-02T21:21:09;5.20;76.63
77052;SHT30;65980;44.898;8.602;2023-02-02T21:24:14;5.55;76.19
77052;SHT30;65980;44.898;8.602;2023-02-02T21:27:19;5.44;75.03
77052;SHT30;65980;44.898;8.602;2023-02-02T21:30:23;5.55;75.41
77052;SHT30;65980;44.898;8.602;2023-02-02T21:33:34;5.77;74.85
77052;SHT30;65980;44.898;8.602;2023-02-02T21:36:49;5.94;73.96
77052;SHT30;65980;44.898;8.602;2023-02-02T21:39:57;5.86;74.36
77052;SHT30;65980;44.898;8.602;2023-02-02T21:43:11;5.92;74.52
77052;SHT30;65980;44.898;8.602;2023-02-02T21:46:28;5.87;74.62
77052;SHT30;65980;44.898;8.602;2023-02-02T21:49:37;6.17;73.63
77052;SHT30;65980;44.898;8.602;2023-02-02T21:52:42;5.89;74.04
77052;SHT30;65980;44.898;8.602;2023-02-02T21:55:58;5.87;73.99
77052;SHT30;65980;44.898;8.602;2023-02-02T21:59:32;5.85;73.13
77052;SHT30;65980;44.898;8.602;2023-02-02T22:02:43;4.69;77.80
77052;SHT30;65980;44.898;8.602;2023-02-02T22:05:56;5.21;75.48
77052;SHT30;65980;44.898;8.602;2023-02-02T22:12:22;4.59;79.15
77052;SHT30;65980;44.898;8.602;2023-02-02T22:15:31;4.79;78.14
77052;SHT30;65980;44.898;8.602;2023-02-02T22:18:37;5.04;77.12
77052;SHT30;65980;44.898;8.602;2023-02-02T22:21:41;5.24;75.31
77052;SHT30;65980;44.898;8.602;2023-02-02T22:25:00;5.10;76.24
77052;SHT30;65980;44.898;8.602;2023-02-02T22:28:23;5.28;75.82
77052;SHT30;65980;44.898;8.602;2023-02-02T22:31:29;5.24;75.73
77052;SHT30;65980;44.898;8.602;2023-02-02T22:34:34;5.37;74.58
77052;SHT30;65980;44.898;8.602;2023-02-02T22:37:38;4.95;77.59
77052;SHT30;65980;44.898;8.602;2023-02-02T22:40:44;5.26;76.05
77052;SHT30;65980;44.898;8.602;2023-02-02T22:43:49;5.32;75.38
77052;SHT30;65980;44.898;8.602;2023-02-02T22:46:54;5.40;74.13
77052;SHT30;65980;44.898;8.602;2023-02-02T22:49:59;5.37;73.96
77052;SHT30;65980;44.898;8.602;2023-02-02T22:53:05;5.38;75.68
77052;SHT30;65980;44.898;8.602;2023-02-02T22:56:10;5.66;74.11
77052;SHT30;65980;44.898;8.602;2023-02-02T22:59:14;5.58;73.16
77052;SHT30;65980;44.898;8.602;2023-02-02T23:02:19;5.59;72.27
77052;SHT30;65980;44.898;8.602;2023-02-02T23:05:25;5.58;71.89
77052;SHT30;65980;44.898;8.602;2023-02-02T23:08:30;5.01;74.94
77052;SHT30;65980;44.898;8.602;2023-02-02T23:11:35;4.97;76.55
77052;SHT30;65980;44.898;8.602;2023-02-02T23:14:40;4.97;75.23
77052;SHT30;65980;44.898;8.602;2023-02-02T23:17:44;5.09;73.40
77052;SHT30;65980;44.898;8.602;2023-02-02T23:20:48;5.30;73.34
77052;SHT30;65980;44.898;8.602;2023-02-02T23:23:53;5.24;74.15
77052;SHT30;65980;44.898;8.602;2023-02-02T23:26:59;5.51;73.01
77052;SHT30;65980;44.898;8.602;2023-02-02T23:30:05;5.69;71.85
77052;SHT30;65980;44.898;8.602;2023-02-02T23:33:10;5.35;72.54
77052;SHT30;65980;44.898;8.602;2023-02-02T23:36:14;4.40;75.72